Prabhu Sakhawat — AVES — position and weather

sailwx.info

Track history (hours):
 
Tides and Currents Weather Stations Pressure Air Temp Water Temp Dewpoint Dewpoint Depression Visibility Wind Speed Wind Dir Waves Ship Positions

Prabhu Sakhawat

Last reported at 2018-Apr-19 15:26 UTC. Time now 2018-Apr-27 02:31 UTC.
Position N 29°55' E 123°49'.

Length 225 m; draft 7.2 m.

Type: Cargo ship. MMSI: 419099500.

Date/timePositionNaut miles runAvg speedWind from/ knotsBaromVisibWave heightAir tempDewpointWater temp
2018-Apr-19 15:26N 29°55' E 123°49'510.9
2018-Apr-19 15:00N 29°59' E 123°46'510.8
2018-Apr-19 14:30N 30°04' E 123°43'610.8
2018-Apr-19 13:55N 30°09' E 123°39'711.0
2018-Apr-19 13:16N 30°15' E 123°34'310.7
2018-Apr-19 13:00N 30°16' E 123°32'510.0
2018-Apr-19 12:29N 30°21' E 123°28'611.5
2018-Apr-19 11:58N 30°26' E 123°26'612.2
2018-Apr-19 11:28N 30°32' E 123°23'812.5
2018-Apr-19 10:52N 30°39' E 123°19'512.9
2018-Apr-19 10:27N 30°43' E 123°16'613.2
2018-Apr-19 09:59N 30°49' E 123°13'812.8
2018-Apr-19 09:21N 30°53' E 123°05'512.8
2018-Apr-19 08:59N 30°53' E 122°59'713.1
2018-Apr-19 08:28N 30°55' E 122°52'1914.2
2018-Apr-19 07:10N 30°60' E 122°31'213.5
2018-Apr-19 07:00N 30°60' E 122°28'713.3
2018-Apr-19 06:30N 31°02' E 122°21'612.9
2018-Apr-19 06:00N 31°03' E 122°13'611.4
2018-Apr-19 05:30N 31°04' E 122°07'611.5
2018-Apr-19 05:00N 31°05' E 122°00'5 9.0
2018-Apr-19 04:30N 31°07' E 121°55'5 9.6
2018-Apr-19 04:00N 31°10' E 121°51'510.5
2018-Apr-19 03:30N 31°14' E 121°47'7 0.2
2018-Apr-17 20:59N 31°19' E 121°42'0 0.0
2018-Apr-17 19:14N 31°19' E 121°42'0 0.0
2018-Apr-17 18:59N 31°19' E 121°42'0 0.0
2018-Apr-17 18:23N 31°19' E 121°42'0 0.0
2018-Apr-17 16:08N 31°19' E 121°42'0 0.0
2018-Apr-17 15:59N 31°19' E 121°42'0 0.0
2018-Apr-17 15:26N 31°19' E 121°42'0 0.0
2018-Apr-17 14:29N 31°19' E 121°42'29 0.8
2018-Apr-16 00:42N 31°09' E 122°13'2 9.1
2018-Apr-16 00:28N 31°08' E 122°15'7 9.1
2018-Apr-15 23:41N 31°06' E 122°23'3 8.7
2018-Apr-15 23:19N 31°07' E 122°27'9 1.5
2018-Apr-15 17:17N 31°10' E 122°36'  
2018-Apr-13 01:39N 31°10' E 122°36'4 1.1
2018-Apr-12 22:00N 31°07' E 122°33'3 6.3
2018-Apr-12 21:30N 31°04' E 122°33'8 7.2
2018-Apr-12 20:20N 30°55' E 122°33'8 0.5
2018-Apr-12 02:01N 30°47' E 122°34'0 0.0
2018-Apr-11 23:12N 30°47' E 122°34'  
Track history (hours):
 
Tides and Currents Weather Stations Pressure Air Temp Water Temp Dewpoint Dewpoint Depression Visibility Wind Speed Wind Dir Waves Ship Positions

Prabhu Sakhawat

Last reported at 2018-Apr-19 15:26 UTC. Time now 2018-Apr-27 02:31 UTC.
Position N 29°55' E 123°49'.

Length 225 m; draft 7.2 m.

Type: Cargo ship. MMSI: 419099500.

Date/timePositionNaut miles runAvg speedWind from/ knotsBaromVisibWave heightAir tempDewpointWater temp
2018-Apr-19 15:26N 29°55' E 123°49'510.9
2018-Apr-19 15:00N 29°59' E 123°46'510.8
2018-Apr-19 14:30N 30°04' E 123°43'610.8
2018-Apr-19 13:55N 30°09' E 123°39'711.0
2018-Apr-19 13:16N 30°15' E 123°34'310.7
2018-Apr-19 13:00N 30°16' E 123°32'510.0
2018-Apr-19 12:29N 30°21' E 123°28'611.5
2018-Apr-19 11:58N 30°26' E 123°26'612.2
2018-Apr-19 11:28N 30°32' E 123°23'812.5
2018-Apr-19 10:52N 30°39' E 123°19'512.9
2018-Apr-19 10:27N 30°43' E 123°16'613.2
2018-Apr-19 09:59N 30°49' E 123°13'812.8
2018-Apr-19 09:21N 30°53' E 123°05'512.8
2018-Apr-19 08:59N 30°53' E 122°59'713.1
2018-Apr-19 08:28N 30°55' E 122°52'1914.2
2018-Apr-19 07:10N 30°60' E 122°31'213.5
2018-Apr-19 07:00N 30°60' E 122°28'713.3
2018-Apr-19 06:30N 31°02' E 122°21'612.9
2018-Apr-19 06:00N 31°03' E 122°13'611.4
2018-Apr-19 05:30N 31°04' E 122°07'611.5
2018-Apr-19 05:00N 31°05' E 122°00'5 9.0
2018-Apr-19 04:30N 31°07' E 121°55'5 9.6
2018-Apr-19 04:00N 31°10' E 121°51'510.5
2018-Apr-19 03:30N 31°14' E 121°47'7 0.2
2018-Apr-17 20:59N 31°19' E 121°42'0 0.0
2018-Apr-17 19:14N 31°19' E 121°42'0 0.0
2018-Apr-17 18:59N 31°19' E 121°42'0 0.0
2018-Apr-17 18:23N 31°19' E 121°42'0 0.0
2018-Apr-17 16:08N 31°19' E 121°42'0 0.0
2018-Apr-17 15:59N 31°19' E 121°42'0 0.0
2018-Apr-17 15:26N 31°19' E 121°42'0 0.0
2018-Apr-17 14:29N 31°19' E 121°42'29 0.8
2018-Apr-16 00:42N 31°09' E 122°13'2 9.1
2018-Apr-16 00:28N 31°08' E 122°15'7 9.1
2018-Apr-15 23:41N 31°06' E 122°23'3 8.7
2018-Apr-15 23:19N 31°07' E 122°27'9 1.5
2018-Apr-15 17:17N 31°10' E 122°36'  
2018-Apr-13 01:39N 31°10' E 122°36'4 1.1
2018-Apr-12 22:00N 31°07' E 122°33'3 6.3
2018-Apr-12 21:30N 31°04' E 122°33'8 7.2
2018-Apr-12 20:20N 30°55' E 122°33'8 0.5
2018-Apr-12 02:01N 30°47' E 122°34'0 0.0
2018-Apr-11 23:12N 30°47' E 122°34'  

Dump ship's entire track history